Time;durP1;ratioP1;P1;durP2;ratioP2;P2;SDS_P1;SDS_P2;PMS_P1;PMS_P2;Temp;Humidity;BMP_temperature;BMP_pressure;BME280_temperature;BME280_humidity;BME280_pressure;Samples;Min_cycle;Max_cycle;Signal;HPM_P1;HPM_P2
2023/12/08 00:00:10;;;;;;;18.38;9.93;;;2.20;99.90;;;;;;5115732;27;20056;-66
2023/12/08 00:02:36;;;;;;;20.17;10.23;;;2.10;99.90;;;;;;5098900;27;20043;-67
2023/12/08 00:05:03;;;;;;;17.95;9.48;;;2.20;99.90;;;;;;5132183;27;20035;-66
2023/12/08 00:07:28;;;;;;;17.85;9.55;;;2.20;99.90;;;;;;5116010;27;20043;-67
2023/12/08 00:09:54;;;;;;;16.50;9.15;;;2.20;99.90;;;;;;5116128;27;20476;-66
2023/12/08 00:12:20;;;;;;;18.50;9.50;;;2.20;99.90;;;;;;5115296;27;20039;-67
2023/12/08 00:14:46;;;;;;;15.93;9.43;;;2.20;99.90;;;;;;5115635;27;20031;-67
2023/12/08 00:17:11;;;;;;;17.17;9.40;;;2.20;99.90;;;;;;5115346;27;20424;-67
2023/12/08 00:19:37;;;;;;;18.42;10.18;;;2.20;99.90;;;;;;5115925;27;20043;-67
2023/12/08 00:22:03;;;;;;;21.33;10.98;;;2.20;99.90;;;;;;5117021;27;20131;-67
2023/12/08 00:24:29;;;;;;;19.52;10.35;;;2.10;99.90;;;;;;5115244;27;20050;-66
2023/12/08 00:26:54;;;;;;;16.52;10.18;;;2.20;99.90;;;;;;5116172;27;20046;-66
2023/12/08 00:29:20;;;;;;;19.13;10.40;;;2.10;99.90;;;;;;5115587;27;20466;-66
2023/12/08 00:31:46;;;;;;;17.40;8.93;;;2.20;99.90;;;;;;5114913;27;20087;-67
2023/12/08 00:34:12;;;;;;;18.27;10.55;;;2.20;99.90;;;;;;5115494;27;20384;-67
2023/12/08 00:36:40;;;;;;;17.00;8.93;;;2.10;99.90;;;;;;5115568;27;20045;-67
2023/12/08 00:39:07;;;;;;;17.63;8.82;;;2.10;99.90;;;;;;5115107;27;20038;-66
2023/12/08 00:41:33;;;;;;;19.60;9.70;;;2.10;99.90;;;;;;5115130;27;20063;-66
2023/12/08 00:43:59;;;;;;;17.42;9.75;;;2.10;99.90;;;;;;5115885;27;20492;-66
2023/12/08 00:46:24;;;;;;;18.42;9.35;;;2.10;99.90;;;;;;5114901;27;20067;-67
2023/12/08 00:48:50;;;;;;;18.75;9.65;;;2.10;99.90;;;;;;5115176;27;20043;-66
2023/12/08 00:51:16;;;;;;;17.05;9.70;;;2.10;99.90;;;;;;5115291;27;20043;-67
2023/12/08 00:53:41;;;;;;;18.98;10.60;;;2.10;99.90;;;;;;5131706;27;20031;-67
2023/12/08 00:56:08;;;;;;;18.08;10.05;;;2.10;99.90;;;;;;5115301;27;20031;-66
2023/12/08 00:58:34;;;;;;;16.58;9.52;;;2.10;99.90;;;;;;5132147;27;20400;-67
2023/12/08 01:01:00;;;;;;;16.77;9.30;;;2.10;99.90;;;;;;5131998;27;20069;-67
2023/12/08 01:03:25;;;;;;;19.20;10.00;;;2.00;99.90;;;;;;5129915;27;20472;-67
2023/12/08 01:05:51;;;;;;;19.40;9.98;;;2.10;99.90;;;;;;5098325;27;20420;-67
2023/12/08 01:08:17;;;;;;;18.42;9.68;;;2.10;99.90;;;;;;5114312;27;20047;-67
2023/12/08 01:10:42;;;;;;;16.88;9.95;;;2.00;99.90;;;;;;5132806;27;20060;-67
2023/12/08 01:13:09;;;;;;;15.20;8.40;;;2.10;99.90;;;;;;5115112;27;20031;-67
2023/12/08 01:15:34;;;;;;;16.55;8.85;;;2.00;99.90;;;;;;5114178;27;20515;-67
2023/12/08 01:18:00;;;;;;;16.92;9.10;;;2.00;99.90;;;;;;5115036;27;20043;-67
2023/12/08 01:20:26;;;;;;;17.80;8.60;;;2.10;99.90;;;;;;5114161;27;20472;-66
2023/12/08 01:22:51;;;;;;;18.80;9.60;;;2.00;99.90;;;;;;5123556;27;20119;-66
2023/12/08 01:25:17;;;;;;;14.55;8.90;;;2.00;99.90;;;;;;5113785;28;20039;-66
2023/12/08 01:27:43;;;;;;;16.83;8.65;;;2.10;99.90;;;;;;5132505;27;20392;-66
2023/12/08 01:30:10;;;;;;;18.15;9.73;;;2.10;99.90;;;;;;5131114;27;20035;-66
2023/12/08 01:32:35;;;;;;;17.33;8.77;;;2.10;99.90;;;;;;5114256;28;20043;-66
2023/12/08 01:35:01;;;;;;;16.08;9.13;;;2.10;99.90;;;;;;5132718;28;20038;-67
2023/12/08 01:37:27;;;;;;;14.82;8.98;;;2.10;99.90;;;;;;5131586;28;20364;-66
2023/12/08 01:39:52;;;;;;;19.80;10.98;;;2.10;99.90;;;;;;5131414;28;20129;-66
2023/12/08 01:42:18;;;;;;;16.90;9.48;;;2.10;99.90;;;;;;5129277;28;20039;-66
2023/12/08 01:44:44;;;;;;;17.65;9.60;;;2.10;99.90;;;;;;5131635;28;20050;-66
2023/12/08 01:47:11;;;;;;;19.67;10.10;;;2.10;99.90;;;;;;5131856;28;20082;-66
2023/12/08 01:49:38;;;;;;;16.48;8.07;;;2.10;99.90;;;;;;5113807;28;20117;-67
2023/12/08 01:52:06;;;;;;;18.30;9.68;;;2.10;99.90;;;;;;5131431;28;20055;-66
2023/12/08 01:54:33;;;;;;;18.25;9.18;;;2.10;99.90;;;;;;5114275;28;20173;-67
2023/12/08 01:56:59;;;;;;;16.98;9.77;;;2.10;99.90;;;;;;5122747;28;20031;-66
2023/12/08 01:59:25;;;;;;;18.48;10.27;;;2.10;99.90;;;;;;5131049;28;20096;-66
2023/12/08 02:01:51;;;;;;;16.75;9.98;;;2.10;99.90;;;;;;5131480;28;20039;-66
2023/12/08 02:04:17;;;;;;;16.42;9.13;;;2.10;99.90;;;;;;5131191;28;20491;-66
2023/12/08 02:06:43;;;;;;;16.17;9.93;;;2.10;99.90;;;;;;5131146;28;20488;-66
2023/12/08 02:09:09;;;;;;;16.63;9.25;;;2.00;99.90;;;;;;5131502;28;20085;-67
2023/12/08 02:11:35;;;;;;;16.90;9.95;;;2.10;99.90;;;;;;5127180;28;20043;-66
2023/12/08 02:14:02;;;;;;;16.17;8.95;;;2.10;99.90;;;;;;5114192;28;20035;-66
2023/12/08 02:16:41;;;;;;;15.07;8.82;;;2.10;99.90;;;;;;5114394;28;20082;-67
2023/12/08 02:19:08;;;;;;;16.58;9.82;;;2.10;99.90;;;;;;5114251;28;20035;-67
2023/12/08 02:21:34;;;;;;;18.00;10.93;;;2.10;99.90;;;;;;5113918;28;20130;-67
2023/12/08 02:24:00;;;;;;;16.65;9.25;;;2.00;99.90;;;;;;5113844;28;20047;-67
2023/12/08 02:26:26;;;;;;;19.17;10.05;;;2.00;99.90;;;;;;5114186;28;20392;-66
2023/12/08 02:28:52;;;;;;;17.70;10.38;;;2.00;99.90;;;;;;5114038;28;20055;-66
2023/12/08 02:31:27;;;;;;;18.13;10.20;;;2.00;99.90;;;;;;5113382;28;20039;-66
2023/12/08 02:33:54;;;;;;;17.27;9.73;;;2.00;99.90;;;;;;5114193;28;20039;-66
2023/12/08 02:36:20;;;;;;;18.58;10.02;;;2.00;99.90;;;;;;5116991;27;20138;-67
2023/12/08 02:38:47;;;;;;;16.08;9.80;;;2.00;99.90;;;;;;5117164;27;20050;-66
2023/12/08 02:41:13;;;;;;;17.88;10.50;;;2.00;99.90;;;;;;5117328;27;20139;-66
2023/12/08 02:43:39;;;;;;;21.05;11.27;;;2.00;99.90;;;;;;5117947;27;20452;-66
2023/12/08 02:46:04;;;;;;;17.02;9.90;;;2.00;99.90;;;;;;5117393;27;20369;-66
2023/12/08 02:48:30;;;;;;;17.70;9.13;;;2.00;99.90;;;;;;5099846;27;20479;-66
2023/12/08 02:50:56;;;;;;;20.10;10.68;;;2.00;99.90;;;;;;5117521;27;20039;-66
2023/12/08 02:53:21;;;;;;;17.85;9.88;;;2.00;99.90;;;;;;5116881;27;20042;-66
2023/12/08 02:55:47;;;;;;;18.90;10.10;;;2.00;99.90;;;;;;5117381;27;20515;-66
2023/12/08 02:58:13;;;;;;;17.40;9.43;;;2.00;99.90;;;;;;5117006;27;20051;-66
2023/12/08 03:00:38;;;;;;;17.15;10.52;;;2.00;99.90;;;;;;5129998;27;20399;-66
2023/12/08 03:03:04;;;;;;;18.40;11.40;;;2.00;99.90;;;;;;5117299;27;20035;-66
2023/12/08 03:05:30;;;;;;;17.80;10.68;;;2.00;99.90;;;;;;5116833;27;20455;-66
2023/12/08 03:07:55;;;;;;;17.60;8.90;;;2.00;99.90;;;;;;5116633;27;20392;-66
2023/12/08 03:10:21;;;;;;;17.10;9.90;;;2.00;99.90;;;;;;5116786;27;20033;-66
2023/12/08 03:12:47;;;;;;;16.67;9.52;;;2.00;99.90;;;;;;5116925;27;20473;-66
2023/12/08 03:15:12;;;;;;;17.05;10.48;;;2.00;99.90;;;;;;5116793;27;20399;-66
2023/12/08 03:17:38;;;;;;;17.98;9.57;;;2.00;99.90;;;;;;5116768;27;20054;-66
2023/12/08 03:20:04;;;;;;;17.45;10.20;;;2.00;99.90;;;;;;5116486;27;20038;-66
2023/12/08 03:22:30;;;;;;;18.25;10.63;;;2.00;99.90;;;;;;5116807;27;20107;-66
2023/12/08 03:24:55;;;;;;;15.98;9.98;;;2.00;99.90;;;;;;5117127;27;20491;-66
2023/12/08 03:27:21;;;;;;;18.25;10.57;;;2.00;99.90;;;;;;5116261;27;20176;-66
2023/12/08 03:29:47;;;;;;;17.17;9.77;;;2.00;99.90;;;;;;5129828;27;20373;-66
2023/12/08 03:32:12;;;;;;;19.42;10.35;;;2.00;99.90;;;;;;5117399;27;20506;-66
2023/12/08 03:34:38;;;;;;;18.92;10.05;;;2.00;99.90;;;;;;5115762;27;20035;-66
2023/12/08 03:37:04;;;;;;;19.30;10.93;;;2.00;99.90;;;;;;5116571;27;20466;-66
2023/12/08 03:39:29;;;;;;;21.10;11.63;;;2.00;99.90;;;;;;5116288;27;20039;-66
2023/12/08 03:41:55;;;;;;;19.02;9.90;;;2.00;99.90;;;;;;5116300;27;20065;-66
2023/12/08 03:44:21;;;;;;;17.30;10.57;;;2.00;99.90;;;;;;5134502;27;20070;-66
2023/12/08 03:46:46;;;;;;;18.88;11.20;;;2.00;99.90;;;;;;5134018;27;20043;-66
2023/12/08 03:49:12;;;;;;;16.55;9.38;;;2.00;99.90;;;;;;5115654;27;20045;-66
2023/12/08 03:51:38;;;;;;;17.88;10.55;;;2.00;99.90;;;;;;5115837;27;20396;-66
2023/12/08 03:54:03;;;;;;;17.80;10.32;;;2.00;99.90;;;;;;5116437;27;20039;-66
2023/12/08 03:56:29;;;;;;;18.88;10.63;;;2.00;99.90;;;;;;5115643;27;20062;-66
2023/12/08 03:58:55;;;;;;;19.45;11.10;;;2.00;99.90;;;;;;5116031;27;20492;-66
2023/12/08 04:01:20;;;;;;;21.30;10.88;;;2.00;99.90;;;;;;5116046;27;20055;-66
2023/12/08 04:03:47;;;;;;;16.70;11.13;;;1.90;99.90;;;;;;5115901;27;20039;-67
2023/12/08 04:06:13;;;;;;;17.52;9.95;;;1.90;99.90;;;;;;5098613;27;20039;-66
2023/12/08 04:08:38;;;;;;;19.23;11.18;;;1.90;99.90;;;;;;5134000;27;20038;-66
2023/12/08 04:11:04;;;;;;;19.65;11.57;;;1.90;99.90;;;;;;5133557;27;20043;-66
2023/12/08 04:13:30;;;;;;;20.73;11.65;;;1.90;99.90;;;;;;5132479;27;20043;-66
2023/12/08 04:15:56;;;;;;;19.73;11.00;;;1.80;99.90;;;;;;5116367;27;20091;-66
2023/12/08 04:18:22;;;;;;;19.67;11.00;;;1.80;99.90;;;;;;5132283;27;20038;-66
2023/12/08 04:20:47;;;;;;;20.27;10.00;;;1.80;99.90;;;;;;5120048;27;20061;-66
2023/12/08 04:23:13;;;;;;;18.75;11.60;;;1.80;99.90;;;;;;5115057;27;20043;-65
2023/12/08 04:25:39;;;;;;;19.95;11.00;;;1.70;99.90;;;;;;5115635;27;20043;-66
2023/12/08 04:28:04;;;;;;;25.17;15.20;;;1.70;99.90;;;;;;5116018;27;20097;-66
2023/12/08 04:30:30;;;;;;;27.92;15.75;;;1.70;99.90;;;;;;5131763;27;20043;-65
2023/12/08 04:32:57;;;;;;;26.65;15.35;;;1.60;99.90;;;;;;5132818;27;20039;-65
2023/12/08 04:35:24;;;;;;;24.48;13.43;;;1.60;99.90;;;;;;5132405;27;20035;-65
2023/12/08 04:37:52;;;;;;;27.75;15.30;;;1.60;99.90;;;;;;5131950;27;20050;-65
2023/12/08 04:40:18;;;;;;;29.13;16.23;;;1.60;99.90;;;;;;5115056;27;20039;-65
2023/12/08 04:42:44;;;;;;;24.85;14.38;;;1.60;99.90;;;;;;5115616;27;20043;-65
2023/12/08 04:45:10;;;;;;;32.10;17.77;;;1.60;99.90;;;;;;5114612;27;20499;-65
2023/12/08 04:47:36;;;;;;;23.05;13.05;;;1.50;99.90;;;;;;5115144;27;20466;-65
2023/12/08 04:50:02;;;;;;;26.25;13.93;;;1.60;99.90;;;;;;5115422;27;20050;-65
2023/12/08 04:52:28;;;;;;;21.10;12.18;;;1.50;99.90;;;;;;5114412;27;20049;-65
2023/12/08 04:54:54;;;;;;;27.48;13.60;;;1.50;99.90;;;;;;5115224;27;20110;-65
2023/12/08 04:57:20;;;;;;;25.80;13.25;;;1.50;99.90;;;;;;5115130;27;20039;-65
2023/12/08 04:59:46;;;;;;;22.52;12.90;;;1.50;99.90;;;;;;5097301;27;20062;-65
2023/12/08 05:02:12;;;;;;;22.65;12.98;;;1.50;99.90;;;;;;5132984;27;20035;-65
2023/12/08 05:04:37;;;;;;;25.27;13.68;;;1.50;99.90;;;;;;5097758;27;20043;-65
2023/12/08 05:07:03;;;;;;;25.48;15.38;;;1.50;99.90;;;;;;5097788;27;20043;-65
2023/12/08 05:09:29;;;;;;;26.50;14.52;;;1.50;99.90;;;;;;5114341;27;20047;-65
2023/12/08 05:11:55;;;;;;;21.98;14.02;;;1.50;99.90;;;;;;5114825;27;20051;-65
2023/12/08 05:14:20;;;;;;;25.50;15.73;;;1.50;99.90;;;;;;5114216;27;20159;-65
2023/12/08 05:16:46;;;;;;;23.80;12.65;;;1.50;99.90;;;;;;5114316;28;20092;-65
2023/12/08 05:19:12;;;;;;;21.58;13.57;;;1.50;99.90;;;;;;5114880;27;20035;-65
2023/12/08 05:21:38;;;;;;;21.90;13.07;;;1.50;99.90;;;;;;5114188;28;20043;-65
2023/12/08 05:24:04;;;;;;;25.10;14.90;;;1.40;99.90;;;;;;5115067;27;20035;-65
2023/12/08 05:26:30;;;;;;;25.88;15.38;;;1.50;99.90;;;;;;5113957;27;20035;-64
2023/12/08 05:28:56;;;;;;;25.05;12.85;;;1.40;99.90;;;;;;5114384;28;20118;-64
2023/12/08 05:31:22;;;;;;;25.95;14.35;;;1.40;99.90;;;;;;5114404;28;20121;-64
2023/12/08 05:33:48;;;;;;;25.75;13.98;;;1.50;99.90;;;;;;5114217;28;20090;-64
2023/12/08 05:36:14;;;;;;;22.17;12.50;;;1.40;99.90;;;;;;5122077;28;20539;-64
2023/12/08 05:38:40;;;;;;;22.85;13.80;;;1.40;99.90;;;;;;5131785;28;20129;-64
2023/12/08 05:41:05;;;;;;;22.23;12.63;;;1.40;99.90;;;;;;5131351;28;20049;-64
2023/12/08 05:43:31;;;;;;;22.23;13.63;;;1.40;99.90;;;;;;5113967;28;20043;-63
2023/12/08 05:45:57;;;;;;;21.63;13.00;;;1.40;99.90;;;;;;5131942;28;20039;-63
2023/12/08 05:48:22;;;;;;;22.27;13.05;;;1.40;99.90;;;;;;5131030;28;20050;-63
2023/12/08 05:50:48;;;;;;;23.27;12.23;;;1.40;99.90;;;;;;5131363;28;20042;-64
2023/12/08 05:53:14;;;;;;;24.38;13.80;;;1.30;99.90;;;;;;5131759;28;20046;-64
2023/12/08 05:55:40;;;;;;;23.83;13.05;;;1.30;99.90;;;;;;5130820;28;20051;-63
2023/12/08 05:58:05;;;;;;;24.20;13.00;;;1.40;99.90;;;;;;5125464;28;20056;-64
2023/12/08 06:00:32;;;;;;;21.23;12.75;;;1.30;99.90;;;;;;5132484;28;20099;-64
2023/12/08 06:02:57;;;;;;;23.45;13.00;;;1.40;99.90;;;;;;5097047;28;20039;-64
2023/12/08 06:05:24;;;;;;;22.60;13.20;;;1.30;99.90;;;;;;5114486;28;20051;-64
2023/12/08 06:07:50;;;;;;;22.40;12.63;;;1.40;99.90;;;;;;5132588;28;20449;-64
2023/12/08 06:10:16;;;;;;;24.98;14.20;;;1.30;99.90;;;;;;5098077;27;20039;-64
2023/12/08 06:12:42;;;;;;;23.63;12.90;;;1.30;99.90;;;;;;5101007;27;20045;-64
2023/12/08 06:15:10;;;;;;;23.15;12.98;;;1.30;99.90;;;;;;5118027;27;20035;-64
2023/12/08 06:17:36;;;;;;;23.55;13.73;;;1.30;99.90;;;;;;5117185;27;20043;-64
2023/12/08 06:20:09;;;;;;;27.23;15.00;;;1.30;99.90;;;;;;5118245;27;20047;-64
2023/12/08 06:22:36;;;;;;;23.80;13.18;;;1.30;99.90;;;;;;5121554;27;20041;-64
2023/12/08 06:25:01;;;;;;;24.30;14.25;;;1.30;99.90;;;;;;5134772;27;20126;-64
2023/12/08 06:27:27;;;;;;;26.65;14.30;;;1.30;99.90;;;;;;5115967;27;20190;-64
2023/12/08 06:29:53;;;;;;;25.50;14.45;;;1.30;99.90;;;;;;5117143;27;20039;-65
2023/12/08 06:32:18;;;;;;;25.60;13.68;;;1.30;99.90;;;;;;5117390;27;20047;-64
2023/12/08 06:34:46;;;;;;;23.55;13.32;;;1.30;99.90;;;;;;5118171;27;20058;-64
2023/12/08 06:37:12;;;;;;;24.15;13.25;;;1.30;99.90;;;;;;5117262;27;20035;-64
2023/12/08 06:39:39;;;;;;;25.75;15.52;;;1.30;99.90;;;;;;5117347;27;20091;-64
2023/12/08 06:42:05;;;;;;;23.27;13.52;;;1.30;99.90;;;;;;5118170;27;20369;-64
2023/12/08 06:44:31;;;;;;;26.92;14.98;;;1.30;99.90;;;;;;5116616;27;20043;-64
2023/12/08 06:46:57;;;;;;;25.23;14.20;;;1.30;99.90;;;;;;5117103;27;20122;-65
2023/12/08 06:49:22;;;;;;;26.45;14.90;;;1.30;99.90;;;;;;5117412;27;20116;-64
2023/12/08 06:51:48;;;;;;;24.38;15.02;;;1.30;99.90;;;;;;5116872;27;20043;-66
2023/12/08 06:54:14;;;;;;;27.35;15.38;;;1.30;99.90;;;;;;5117208;27;20043;-65
2023/12/08 06:56:42;;;;;;;28.05;14.60;;;1.40;99.90;;;;;;5100428;27;20043;-65
2023/12/08 06:59:08;;;;;;;26.40;14.95;;;1.40;99.90;;;;;;5116714;27;20047;-65
2023/12/08 07:01:34;;;;;;;25.83;13.57;;;1.30;99.90;;;;;;5117484;27;20373;-65
2023/12/08 07:04:00;;;;;;;30.80;15.43;;;1.30;99.90;;;;;;5116981;27;20050;-65
2023/12/08 07:06:26;;;;;;;28.55;16.02;;;1.40;99.90;;;;;;5116507;27;20088;-65
2023/12/08 07:08:51;;;;;;;27.80;15.05;;;1.40;99.90;;;;;;5117053;27;20046;-65
2023/12/08 07:11:17;;;;;;;23.40;14.82;;;1.40;99.90;;;;;;5116861;27;20035;-65
2023/12/08 07:13:42;;;;;;;26.10;13.77;;;1.40;99.90;;;;;;5099486;27;20072;-65
2023/12/08 07:16:09;;;;;;;28.10;15.63;;;1.40;99.90;;;;;;5116715;27;20035;-65
2023/12/08 07:18:37;;;;;;;29.25;16.60;;;1.40;99.90;;;;;;5134311;27;20043;-65
2023/12/08 07:21:03;;;;;;;28.63;16.20;;;1.40;99.90;;;;;;5133429;27;20443;-65
2023/12/08 07:23:29;;;;;;;24.92;14.38;;;1.40;99.90;;;;;;5115540;27;20058;-65
2023/12/08 07:25:55;;;;;;;28.08;16.08;;;1.40;99.90;;;;;;5117061;27;20039;-65
2023/12/08 07:28:21;;;;;;;25.88;12.88;;;1.40;99.90;;;;;;5133350;27;20050;-65
2023/12/08 07:30:46;;;;;;;28.08;15.73;;;1.40;99.90;;;;;;5135197;27;20035;-65
2023/12/08 07:33:12;;;;;;;28.60;15.70;;;1.40;99.90;;;;;;5132844;27;20038;-65
2023/12/08 07:35:38;;;;;;;31.75;17.10;;;1.50;99.90;;;;;;5127318;27;20163;-65
2023/12/08 07:38:04;;;;;;;25.40;13.57;;;1.40;99.90;;;;;;5114535;27;20039;-65
2023/12/08 07:40:30;;;;;;;29.00;15.07;;;1.50;99.90;;;;;;5112940;27;20055;-65
2023/12/08 07:42:55;;;;;;;28.02;13.70;;;1.40;99.90;;;;;;5096576;27;20047;-65
2023/12/08 07:45:21;;;;;;;26.13;13.75;;;1.40;99.90;;;;;;5113494;27;20049;-65
2023/12/08 07:47:47;;;;;;;24.73;14.27;;;1.40;99.90;;;;;;5113263;27;20147;-65
2023/12/08 07:50:14;;;;;;;25.55;13.98;;;1.40;99.90;;;;;;5095991;27;20047;-65
2023/12/08 07:52:41;;;;;;;28.65;13.93;;;1.50;99.90;;;;;;5096465;27;20058;-65
2023/12/08 07:55:11;;;;;;;30.38;15.35;;;1.50;99.90;;;;;;5096147;27;20080;-65
2023/12/08 07:57:37;;;;;;;26.48;13.73;;;1.40;99.90;;;;;;5113120;27;20824;-65
2023/12/08 08:00:06;;;;;;;22.50;13.93;;;1.50;99.90;;;;;;5113692;27;20046;-65
2023/12/08 08:02:32;;;;;;;25.88;14.43;;;1.50;99.90;;;;;;5112552;27;20047;-65
2023/12/08 08:04:58;;;;;;;27.73;15.95;;;1.50;99.90;;;;;;5121485;27;20537;-65
2023/12/08 08:07:24;;;;;;;24.10;15.70;;;1.50;99.90;;;;;;5130729;27;20126;-66
2023/12/08 08:09:50;;;;;;;25.15;13.93;;;1.60;99.90;;;;;;5128077;27;20055;-65
2023/12/08 08:12:16;;;;;;;28.60;15.45;;;1.50;99.90;;;;;;5109505;27;20054;-64
2023/12/08 08:14:42;;;;;;;27.17;14.30;;;1.50;99.90;;;;;;5092210;27;20123;-65
2023/12/08 08:17:08;;;;;;;24.35;14.65;;;1.50;99.90;;;;;;5112226;27;20083;-65
2023/12/08 08:19:33;;;;;;;25.38;13.88;;;1.50;99.90;;;;;;5111678;27;20038;-65
2023/12/08 08:21:59;;;;;;;27.58;14.60;;;1.50;99.90;;;;;;5112606;27;20054;-65
2023/12/08 08:24:26;;;;;;;28.35;15.48;;;1.40;99.90;;;;;;5125897;27;20130;-65
2023/12/08 08:26:51;;;;;;;24.02;14.52;;;1.50;99.90;;;;;;5113565;27;20043;-65
2023/12/08 08:29:17;;;;;;;25.05;15.40;;;1.50;99.90;;;;;;5112031;27;20047;-64
2023/12/08 08:31:43;;;;;;;28.55;15.40;;;1.50;99.90;;;;;;5111089;27;20043;-65
2023/12/08 08:34:08;;;;;;;27.73;14.68;;;1.50;99.90;;;;;;5109387;27;20035;-65
2023/12/08 08:36:34;;;;;;;28.38;14.35;;;1.50;99.90;;;;;;5112321;27;20092;-65
2023/12/08 08:38:59;;;;;;;22.98;13.05;;;1.60;99.90;;;;;;5110915;27;20068;-65
2023/12/08 08:41:25;;;;;;;25.98;14.00;;;1.60;99.90;;;;;;5111921;27;20100;-65
2023/12/08 08:43:51;;;;;;;26.00;13.23;;;1.60;99.90;;;;;;5111279;27;20031;-64
2023/12/08 08:46:17;;;;;;;23.02;13.20;;;1.50;99.90;;;;;;5111403;27;20486;-64
2023/12/08 08:48:43;;;;;;;27.15;14.43;;;1.50;99.90;;;;;;5095373;27;20122;-65
2023/12/08 08:51:10;;;;;;;23.30;14.45;;;1.50;99.90;;;;;;5111630;27;20043;-65
2023/12/08 08:53:36;;;;;;;22.95;13.65;;;1.60;99.90;;;;;;5110998;27;20136;-65
2023/12/08 08:56:02;;;;;;;24.92;13.82;;;1.60;99.90;;;;;;5111721;27;20135;-64
2023/12/08 08:58:28;;;;;;;27.15;14.35;;;1.50;99.90;;;;;;5110510;27;20059;-65
2023/12/08 09:00:54;;;;;;;24.55;14.02;;;1.60;99.90;;;;;;5112132;27;20042;-64
2023/12/08 09:03:20;;;;;;;25.48;13.13;;;1.60;99.90;;;;;;5113455;27;20415;-64
2023/12/08 09:05:46;;;;;;;28.77;14.52;;;1.60;99.90;;;;;;5111746;27;20042;-64
2023/12/08 09:08:12;;;;;;;21.58;12.38;;;1.60;99.90;;;;;;5111135;27;20035;-64
2023/12/08 09:10:39;;;;;;;25.30;14.13;;;1.60;99.90;;;;;;5111710;27;20096;-64
2023/12/08 09:13:04;;;;;;;25.27;13.27;;;1.60;99.90;;;;;;5102115;27;20047;-64
2023/12/08 09:15:30;;;;;;;26.08;13.65;;;1.70;99.90;;;;;;5116649;27;20096;-64
2023/12/08 09:17:56;;;;;;;25.23;13.73;;;1.60;99.90;;;;;;5113194;27;20050;-64
2023/12/08 09:20:23;;;;;;;26.27;13.90;;;1.60;99.90;;;;;;5110636;27;20031;-64
2023/12/08 09:22:50;;;;;;;23.38;13.27;;;1.60;99.90;;;;;;5111519;28;20083;-64
2023/12/08 09:25:18;;;;;;;26.20;14.38;;;1.60;99.90;;;;;;5090031;27;20578;-64
2023/12/08 09:27:44;;;;;;;21.75;13.88;;;1.60;99.90;;;;;;5114156;27;20107;-64
2023/12/08 09:30:10;;;;;;;26.35;13.55;;;1.60;99.90;;;;;;5111206;28;20690;-64
2023/12/08 09:32:35;;;;;;;24.13;13.43;;;1.60;99.90;;;;;;5109922;28;20074;-64
2023/12/08 09:35:01;;;;;;;23.70;13.57;;;1.60;99.90;;;;;;5113798;28;20463;-64
2023/12/08 09:37:26;;;;;;;26.92;15.27;;;1.60;99.90;;;;;;5113635;28;20046;-64
2023/12/08 09:39:52;;;;;;;26.70;15.82;;;1.70;99.90;;;;;;5110342;28;20126;-65
2023/12/08 09:42:51;;;;;;;23.02;12.65;;;1.70;99.90;;;;;;5111129;28;20035;-65
2023/12/08 09:45:18;;;;;;;23.25;13.90;;;1.80;99.90;;;;;;5112796;27;20039;-65
2023/12/08 09:47:47;;;;;;;30.17;15.93;;;1.80;99.90;;;;;;5115365;27;20071;-64
2023/12/08 09:50:13;;;;;;;30.50;14.93;;;1.70;99.90;;;;;;5114983;27;20035;-64
2023/12/08 09:52:40;;;;;;;28.52;14.70;;;1.80;99.90;;;;;;5115569;27;20108;-65
2023/12/08 09:55:06;;;;;;;25.38;15.02;;;1.80;99.90;;;;;;5114745;27;20135;-64
2023/12/08 09:57:34;;;;;;;26.67;15.05;;;1.80;99.90;;;;;;5114729;27;20035;-65
2023/12/08 10:00:09;;;;;;;24.73;14.40;;;1.80;99.90;;;;;;5115410;27;20062;-65
2023/12/08 10:02:35;;;;;;;29.25;16.20;;;1.90;99.90;;;;;;5114254;27;20039;-64
2023/12/08 10:05:01;;;;;;;27.20;14.95;;;1.80;99.90;;;;;;5115273;27;20043;-64
2023/12/08 10:07:31;;;;;;;31.05;14.40;;;1.90;99.90;;;;;;5114781;27;20047;-64
2023/12/08 10:10:02;;;;;;;25.92;14.90;;;2.00;99.90;;;;;;5114084;27;20050;-65
2023/12/08 10:12:28;;;;;;;22.48;13.55;;;1.90;99.90;;;;;;5114965;27;20919;-65
2023/12/08 10:14:58;;;;;;;29.45;15.23;;;1.90;99.90;;;;;;5115692;27;20035;-64
2023/12/08 10:17:25;;;;;;;25.92;14.68;;;2.00;99.90;;;;;;5133324;27;20376;-65
2023/12/08 10:20:07;;;;;;;27.95;14.27;;;2.10;99.90;;;;;;5103439;27;20483;-65
2023/12/08 10:22:43;;;;;;;25.70;15.63;;;2.10;99.90;;;;;;5116790;27;20474;-65
2023/12/08 10:25:09;;;;;;;22.13;13.52;;;2.10;99.90;;;;;;5115741;27;20059;-65
2023/12/08 10:27:35;;;;;;;26.23;14.63;;;2.00;99.90;;;;;;5097576;27;20108;-65
2023/12/08 10:30:03;;;;;;;25.50;15.00;;;2.00;99.90;;;;;;5114459;27;20150;-65
2023/12/08 10:32:28;;;;;;;25.77;14.15;;;2.10;99.90;;;;;;5096723;27;20536;-64
2023/12/08 10:34:56;;;;;;;26.58;15.10;;;2.10;99.90;;;;;;5123500;27;20039;-64
2023/12/08 10:37:22;;;;;;;25.63;14.90;;;2.10;99.90;;;;;;5102141;27;20039;-64
2023/12/08 10:39:48;;;;;;;26.42;15.98;;;2.20;99.90;;;;;;5113507;27;20041;-64
2023/12/08 10:42:15;;;;;;;25.40;14.55;;;2.20;99.90;;;;;;5114266;27;20042;-64
2023/12/08 10:44:45;;;;;;;31.67;16.27;;;2.20;99.90;;;;;;5114714;27;20391;-64
2023/12/08 10:47:11;;;;;;;25.73;14.63;;;2.20;99.90;;;;;;5116744;27;20441;-64
2023/12/08 10:49:38;;;;;;;28.92;16.55;;;2.20;99.90;;;;;;5114445;27;20047;-64
2023/12/08 10:52:06;;;;;;;28.85;15.23;;;2.20;99.90;;;;;;5120867;27;20054;-64
2023/12/08 10:54:32;;;;;;;28.70;15.65;;;2.20;99.90;;;;;;5114289;27;20129;-65
2023/12/08 10:56:58;;;;;;;24.25;15.57;;;2.30;99.90;;;;;;5114403;27;20385;-65
2023/12/08 10:59:28;;;;;;;24.85;15.05;;;2.20;99.90;;;;;;5110325;28;20062;-65
2023/12/08 11:01:57;;;;;;;30.92;16.70;;;2.30;99.90;;;;;;5109825;28;20640;-65
2023/12/08 11:04:25;;;;;;;27.05;15.93;;;2.20;99.90;;;;;;5110233;28;20527;-65
2023/12/08 11:06:59;;;;;;;30.67;16.20;;;2.30;99.90;;;;;;5110383;28;20036;-65
2023/12/08 11:09:28;;;;;;;29.17;16.27;;;2.20;99.90;;;;;;5100167;28;20389;-66
2023/12/08 11:11:56;;;;;;;32.80;16.45;;;2.30;99.90;;;;;;5109259;28;20806;-64
2023/12/08 11:14:38;;;;;;;32.53;19.58;;;2.20;99.90;;;;;;5110101;28;20126;-65
2023/12/08 11:17:16;;;;;;;31.35;16.33;;;2.30;99.90;;;;;;5111070;28;20118;-66
2023/12/08 11:19:43;;;;;;;30.73;16.15;;;2.30;99.90;;;;;;5110067;28;20732;-64
2023/12/08 11:22:09;;;;;;;28.73;15.68;;;2.20;99.90;;;;;;5110133;28;20574;-65
2023/12/08 11:24:36;;;;;;;31.50;17.17;;;2.30;99.90;;;;;;5093504;28;20136;-65
2023/12/08 11:27:30;;;;;;;30.48;17.23;;;2.30;99.90;;;;;;5110049;28;20051;-65
2023/12/08 11:30:25;;;;;;;36.53;19.35;;;2.30;99.90;;;;;;5110156;28;20054;-65
2023/12/08 11:33:19;;;;;;;32.92;15.55;;;2.30;99.90;;;;;;5090473;28;20768;-65
2023/12/08 11:35:54;;;;;;;34.03;18.10;;;2.30;99.90;;;;;;5111650;28;20404;-65
2023/12/08 11:38:27;;;;;;;33.20;17.50;;;2.30;99.90;;;;;;5112806;28;20393;-64
2023/12/08 11:40:56;;;;;;;27.63;15.63;;;2.40;99.90;;;;;;5112661;28;20036;-65
2023/12/08 11:43:23;;;;;;;31.48;17.13;;;2.30;99.90;;;;;;5113375;28;20384;-64
2023/12/08 11:45:49;;;;;;;30.15;16.42;;;2.40;99.90;;;;;;5113307;28;20531;-64
2023/12/08 11:48:15;;;;;;;31.88;17.30;;;2.40;99.90;;;;;;5112247;28;20038;-64
2023/12/08 11:50:41;;;;;;;30.48;15.82;;;2.40;99.90;;;;;;5096407;28;20114;-64
2023/12/08 11:53:07;;;;;;;29.60;17.42;;;2.40;99.90;;;;;;5113111;28;20605;-62
2023/12/08 11:55:32;;;;;;;28.27;16.98;;;2.50;99.90;;;;;;5112255;28;20534;-62
2023/12/08 11:58:01;;;;;;;30.05;16.98;;;2.50;99.90;;;;;;5115773;27;20537;-63
2023/12/08 12:00:29;;;;;;;29.27;15.20;;;2.50;99.90;;;;;;5116106;27;20039;-64
2023/12/08 12:02:57;;;;;;;33.65;16.77;;;2.40;99.90;;;;;;5116327;27;20047;-65
2023/12/08 12:05:23;;;;;;;29.30;16.67;;;2.40;99.90;;;;;;5115841;27;20126;-65
2023/12/08 12:07:51;;;;;;;30.70;17.52;;;2.50;99.90;;;;;;5114825;27;20043;-65
2023/12/08 12:10:28;;;;;;;36.42;17.70;;;2.50;99.90;;;;;;5115624;27;20043;-65
2023/12/08 12:12:56;;;;;;;29.23;16.73;;;2.50;99.90;;;;;;5116237;27;20047;-65
2023/12/08 12:15:25;;;;;;;34.08;17.48;;;2.50;99.90;;;;;;5114119;27;20274;-65
2023/12/08 12:17:53;;;;;;;30.13;16.10;;;2.50;99.90;;;;;;5115480;27;20047;-65
2023/12/08 12:20:19;;;;;;;29.20;16.35;;;2.60;99.90;;;;;;5116055;27;20066;-65
2023/12/08 12:22:45;;;;;;;30.08;14.98;;;2.50;99.90;;;;;;5115377;27;20035;-65
2023/12/08 12:25:11;;;;;;;30.05;16.45;;;2.60;99.90;;;;;;5115759;27;20067;-65
2023/12/08 12:27:46;;;;;;;31.75;16.20;;;2.60;99.90;;;;;;5115697;27;20039;-65
2023/12/08 12:30:12;;;;;;;31.63;16.85;;;2.70;99.90;;;;;;5098011;27;20082;-65
2023/12/08 12:32:38;;;;;;;34.45;17.52;;;2.70;99.90;;;;;;5098210;27;20028;-65
2023/12/08 12:35:05;;;;;;;32.10;17.70;;;2.70;99.90;;;;;;5134416;27;20114;-65